createdAt,value
2018-07-16T00:00:36.894Z,46.13
2018-07-16T00:03:05.705Z,46.20
2018-07-16T00:05:34.187Z,46.41
2018-07-16T00:08:02.757Z,46.71
2018-07-16T00:10:31.679Z,46.85
2018-07-16T00:13:00.375Z,46.58
2018-07-16T00:15:28.862Z,46.79
2018-07-16T00:17:57.477Z,46.75
2018-07-16T00:20:26.227Z,46.95
2018-07-16T00:22:54.899Z,47.11
2018-07-16T00:25:23.527Z,47.56
2018-07-16T00:27:52.781Z,47.62
2018-07-16T00:30:21.526Z,47.37
2018-07-16T00:32:49.969Z,47.98
2018-07-16T00:35:18.733Z,47.50
2018-07-16T00:37:48.010Z,48.43
2018-07-16T00:40:16.552Z,48.05
2018-07-16T00:42:45.496Z,48.38
2018-07-16T00:45:14.221Z,48.95
2018-07-16T00:47:42.916Z,48.81
2018-07-16T00:50:11.449Z,48.69
2018-07-16T00:52:40.405Z,49.16
2018-07-16T00:55:08.865Z,48.93
2018-07-16T00:57:37.508Z,48.90
2018-07-16T01:00:06.075Z,49.55
2018-07-16T01:02:35.009Z,49.66
2018-07-16T01:05:03.723Z,49.82
2018-07-16T01:07:32.366Z,49.77
2018-07-16T01:10:00.812Z,50.14
2018-07-16T01:12:29.773Z,50.13
2018-07-16T01:14:58.261Z,50.54
2018-07-16T01:17:26.738Z,50.36
2018-07-16T01:19:55.677Z,50.45
2018-07-16T01:22:24.535Z,50.72
2018-07-16T01:24:52.999Z,50.75
2018-07-16T01:27:21.829Z,51.05
2018-07-16T01:29:50.583Z,50.99
2018-07-16T01:32:19.015Z,51.28
2018-07-16T01:34:47.790Z,51.34
2018-07-16T01:37:16.616Z,51.62
2018-07-16T01:39:46.102Z,51.76
2018-07-16T01:42:14.780Z,51.77
2018-07-16T01:44:43.269Z,51.70
2018-07-16T01:47:12.529Z,51.81
2018-07-16T01:49:40.997Z,51.78
2018-07-16T01:52:09.478Z,52.09
2018-07-16T01:54:38.152Z,52.25
2018-07-16T01:57:06.745Z,52.22
2018-07-16T01:59:35.213Z,52.52
2018-07-16T02:02:03.845Z,52.50
2018-07-16T02:04:32.709Z,52.50
2018-07-16T02:07:01.165Z,52.83
2018-07-16T02:09:29.631Z,52.65
2018-07-16T02:11:58.522Z,52.98
2018-07-16T02:14:27.289Z,52.90
2018-07-16T02:16:55.740Z,53.22
2018-07-16T02:19:24.537Z,53.42
2018-07-16T02:21:53.257Z,53.40
2018-07-16T02:24:21.705Z,53.25
2018-07-16T02:26:50.481Z,53.64
2018-07-16T02:36:10.333Z,52.78
2018-07-16T02:38:38.830Z,53.36
2018-07-16T02:41:07.307Z,53.65
2018-07-16T02:43:36.313Z,53.84
2018-07-16T02:46:04.786Z,53.84
2018-07-16T02:48:33.225Z,53.87
2018-07-16T02:51:02.062Z,53.89
2018-07-16T02:53:30.506Z,54.00
2018-07-16T02:55:59.649Z,53.78
2018-07-16T02:58:29.326Z,53.81
2018-07-16T03:00:58.103Z,53.85
2018-07-16T03:03:26.545Z,54.09
2018-07-16T03:05:55.409Z,53.93
2018-07-16T03:08:24.177Z,53.78
2018-07-16T03:10:52.625Z,54.06
2018-07-16T03:13:21.765Z,53.86
2018-07-16T03:15:50.590Z,53.28
2018-07-16T03:18:19.033Z,53.57
2018-07-16T03:20:48.121Z,53.53
2018-07-16T03:23:16.889Z,53.32
2018-07-16T03:25:45.341Z,53.59
2018-07-16T03:28:14.278Z,53.32
2018-07-16T03:30:42.957Z,53.27
2018-07-16T03:33:11.671Z,53.24
2018-07-16T03:35:40.541Z,52.67
2018-07-16T03:38:08.987Z,52.57
2018-07-16T03:40:37.725Z,52.24
2018-07-16T03:43:06.682Z,52.58
2018-07-16T03:45:35.121Z,52.21
2018-07-16T03:48:03.794Z,52.24
2018-07-16T03:50:32.717Z,52.24
2018-07-16T03:53:01.458Z,52.21
2018-07-16T03:55:29.930Z,51.64
2018-07-16T03:57:59.551Z,51.53
2018-07-16T04:00:28.019Z,51.52
2018-07-16T04:02:56.457Z,52.08
2018-07-16T04:05:25.675Z,51.92
2018-07-16T04:07:54.469Z,51.39
2018-07-16T04:10:23.186Z,51.29
2018-07-16T04:12:52.057Z,51.08
2018-07-16T04:15:20.505Z,50.80
2018-07-16T04:17:49.303Z,51.27
2018-07-16T04:20:18.204Z,51.28
2018-07-16T04:22:46.884Z,50.63
2018-07-16T04:25:15.885Z,50.53
2018-07-16T04:27:44.427Z,51.03
2018-07-16T04:30:12.890Z,50.67
2018-07-16T04:32:41.469Z,49.96
2018-07-16T04:35:10.201Z,50.13
2018-07-16T04:37:38.649Z,49.92
2018-07-16T04:40:07.221Z,49.42
2018-07-16T04:42:36.262Z,50.00
2018-07-16T04:45:04.740Z,50.02
2018-07-16T04:47:33.177Z,49.22
2018-07-16T04:50:02.110Z,49.41
2018-07-16T04:52:30.575Z,48.76
2018-07-16T04:54:59.036Z,48.76
2018-07-16T04:57:28.391Z,48.69
2018-07-16T04:59:57.297Z,49.21
2018-07-16T05:02:25.732Z,49.22
2018-07-16T05:04:54.525Z,48.58
2018-07-16T05:07:23.529Z,49.07
2018-07-16T05:09:52.016Z,49.05
2018-07-16T05:12:20.890Z,49.55
2018-07-16T05:14:49.893Z,49.38
2018-07-16T05:17:18.578Z,49.40
2018-07-16T05:19:47.555Z,48.60
2018-07-16T05:22:16.297Z,48.71
2018-07-16T05:24:45.019Z,49.38
2018-07-16T05:27:13.821Z,48.85
2018-07-16T05:29:42.591Z,49.22
2018-07-16T05:32:11.784Z,49.21
2018-07-16T05:34:40.744Z,48.68
2018-07-16T05:37:09.232Z,49.09
2018-07-16T05:39:37.676Z,49.59
2018-07-16T05:42:06.574Z,48.85
2018-07-16T05:44:35.053Z,49.39
2018-07-16T05:47:03.637Z,49.53
2018-07-16T05:49:32.305Z,49.62
2018-07-16T05:52:01.122Z,49.33
2018-07-16T05:54:29.793Z,49.44
2018-07-16T05:56:58.381Z,49.35
2018-07-16T05:59:27.248Z,48.86
2018-07-16T06:01:55.878Z,48.65
2018-07-16T06:04:24.447Z,48.25
2018-07-16T06:06:53.214Z,48.29
2018-07-16T06:09:21.753Z,47.49
2018-07-16T06:11:50.356Z,48.14
2018-07-16T06:14:18.789Z,48.01
2018-07-16T06:16:47.480Z,47.64
2018-07-16T06:19:16.030Z,47.46
2018-07-16T06:21:44.525Z,46.82
2018-07-16T06:24:13.201Z,47.30
2018-07-16T06:26:42.586Z,47.24
2018-07-16T06:29:11.017Z,46.73
2018-07-16T06:31:39.757Z,47.33
2018-07-16T06:34:08.664Z,46.87
2018-07-16T06:36:37.101Z,46.55
2018-07-16T06:39:06.078Z,46.33
2018-07-16T06:41:35.658Z,46.06
2018-07-16T06:44:03.812Z,46.39
2018-07-16T06:46:32.337Z,46.23
2018-07-16T06:49:01.094Z,46.39
2018-07-16T06:51:29.574Z,46.07
2018-07-16T06:53:57.998Z,45.51
2018-07-16T06:56:26.622Z,46.06
2018-07-16T06:58:55.609Z,45.32
2018-07-16T07:01:24.038Z,45.31
2018-07-16T07:03:53.164Z,45.17
2018-07-16T07:06:21.732Z,44.97
2018-07-16T07:08:50.162Z,44.70
2018-07-16T07:11:19.538Z,44.24
2018-07-16T07:13:48.317Z,43.86
2018-07-16T07:16:16.981Z,42.96
2018-07-16T07:18:45.991Z,43.43
2018-07-16T07:21:14.450Z,42.31
2018-07-16T07:23:43.303Z,42.89
2018-07-16T07:26:12.277Z,42.46
2018-07-16T07:28:40.911Z,41.32
2018-07-16T07:31:09.524Z,41.05
2018-07-16T07:33:38.251Z,40.89
2018-07-16T07:36:06.754Z,40.47
2018-07-16T07:38:35.175Z,41.29
2018-07-16T07:41:04.165Z,40.05
2018-07-16T07:43:32.618Z,38.58
2018-07-16T07:46:01.064Z,37.94
2018-07-16T07:48:30.450Z,36.01
2018-07-16T07:50:58.963Z,34.53
2018-07-16T07:53:27.433Z,33.48
2018-07-16T07:55:56.192Z,33.42
2018-07-16T07:58:25.035Z,32.08
2018-07-16T08:00:53.663Z,31.00
2018-07-16T08:03:22.938Z,30.14
2018-07-16T08:05:57.363Z,29.81
2018-07-16T08:08:25.878Z,28.78
2018-07-16T08:10:54.868Z,28.15
2018-07-16T08:13:23.555Z,27.54
2018-07-16T08:15:52.642Z,27.45
2018-07-16T08:18:21.730Z,27.50
2018-07-16T08:20:50.271Z,26.43
2018-07-16T08:23:18.931Z,26.46
2018-07-16T08:25:47.421Z,26.36
2018-07-16T08:28:16.059Z,25.33
2018-07-16T08:30:44.857Z,25.20
2018-07-16T08:33:13.669Z,25.58
2018-07-16T08:35:42.202Z,24.76
2018-07-16T08:38:11.929Z,24.80
2018-07-16T08:40:40.511Z,24.13
2018-07-16T08:43:09.010Z,24.41
2018-07-16T08:45:37.869Z,24.40
2018-07-16T08:48:06.657Z,24.18
2018-07-16T08:50:35.113Z,22.97
2018-07-16T08:53:04.434Z,22.92
2018-07-16T08:55:33.353Z,22.60
2018-07-16T08:58:02.094Z,22.42
2018-07-16T09:00:31.001Z,22.78
2018-07-16T09:02:59.705Z,23.04
2018-07-16T09:05:28.389Z,21.87
2018-07-16T09:07:57.264Z,22.89
2018-07-16T09:10:25.717Z,22.37
2018-07-16T09:12:55.134Z,21.67
2018-07-16T09:15:23.897Z,21.43
2018-07-16T09:17:52.700Z,21.63
2018-07-16T09:20:21.733Z,21.82
2018-07-16T09:22:50.204Z,21.78
2018-07-16T09:25:18.740Z,21.51
2018-07-16T09:27:47.745Z,21.17
2018-07-16T09:30:17.478Z,21.71
2018-07-16T09:32:46.039Z,21.38
2018-07-16T09:35:14.778Z,21.48
2018-07-16T09:37:43.740Z,22.33
2018-07-16T09:40:12.485Z,21.30
2018-07-16T09:42:41.133Z,20.42
2018-07-16T09:45:10.018Z,21.03
2018-07-16T09:47:38.777Z,20.93
2018-07-16T09:50:07.312Z,20.45
2018-07-16T09:52:36.178Z,20.29
2018-07-16T09:55:04.922Z,20.11
2018-07-16T09:57:33.562Z,19.82
2018-07-16T10:00:02.040Z,19.73
2018-07-16T10:02:30.476Z,19.78
2018-07-16T10:04:58.987Z,19.73
2018-07-16T10:07:27.745Z,19.25
2018-07-16T10:09:56.521Z,18.58
2018-07-16T10:12:24.974Z,19.44
2018-07-16T10:14:53.925Z,19.28
2018-07-16T10:17:23.022Z,19.48
2018-07-16T10:19:51.737Z,19.52
2018-07-16T10:22:20.681Z,18.93
2018-07-16T10:24:49.272Z,19.35
2018-07-16T10:27:18.669Z,19.61
2018-07-16T10:29:47.872Z,19.84
2018-07-16T10:32:16.685Z,19.26
2018-07-16T10:34:45.661Z,19.28
2018-07-16T10:37:14.546Z,18.72
2018-07-16T10:39:43.001Z,20.29
2018-07-16T10:42:11.807Z,20.80
2018-07-16T10:44:40.365Z,19.76
2018-07-16T10:47:09.182Z,19.22
2018-07-16T10:49:37.777Z,18.51
2018-07-16T10:52:06.889Z,18.34
2018-07-16T10:54:35.329Z,18.67
2018-07-16T10:57:03.873Z,18.40
2018-07-16T10:59:32.538Z,17.23
2018-07-16T11:02:01.099Z,17.07
2018-07-16T11:04:29.737Z,17.04
2018-07-16T11:06:58.608Z,16.70
2018-07-16T11:09:27.249Z,16.95
2018-07-16T11:11:56.074Z,16.86
2018-07-16T11:14:25.135Z,17.85
2018-07-16T11:16:53.614Z,17.01
2018-07-16T11:19:22.090Z,16.78
2018-07-16T11:21:51.122Z,16.45
2018-07-16T11:24:20.313Z,17.25
2018-07-16T11:26:48.997Z,17.05
2018-07-16T11:29:17.909Z,17.31
2018-07-16T11:31:46.948Z,16.82
2018-07-16T11:34:16.099Z,17.15
2018-07-16T11:36:44.933Z,17.31
2018-07-16T11:39:13.505Z,17.65
2018-07-16T11:41:42.048Z,17.21
2018-07-16T11:44:10.686Z,17.44
2018-07-16T11:46:39.113Z,17.69
2018-07-16T11:49:07.714Z,18.00
2018-07-16T11:51:36.344Z,17.70
2018-07-16T11:54:05.097Z,17.42
2018-07-16T11:56:33.638Z,18.27
2018-07-16T11:59:02.827Z,18.33
2018-07-16T12:01:31.225Z,17.94
2018-07-16T12:03:59.701Z,17.58
2018-07-16T12:06:28.894Z,17.83
2018-07-16T12:08:57.327Z,17.76
2018-07-16T12:11:25.815Z,18.73
2018-07-16T12:13:55.050Z,18.57
2018-07-16T12:16:23.477Z,18.82
2018-07-16T12:18:51.997Z,18.72
2018-07-16T12:21:20.874Z,18.93
2018-07-16T12:23:49.330Z,18.16
2018-07-16T12:26:17.927Z,18.23
2018-07-16T12:28:48.024Z,17.70
2018-07-16T12:31:16.938Z,17.65
2018-07-16T12:33:45.677Z,17.87
2018-07-16T12:36:14.525Z,17.14
2018-07-16T12:38:43.311Z,16.80
2018-07-16T12:41:11.761Z,17.23
2018-07-16T12:43:40.581Z,17.36
2018-07-16T12:46:09.133Z,17.20
2018-07-16T12:48:37.566Z,17.09
2018-07-16T12:51:06.719Z,17.18
2018-07-16T12:53:35.458Z,17.25
2018-07-16T12:56:03.891Z,17.14
2018-07-16T12:58:32.706Z,17.67
2018-07-16T13:01:01.672Z,17.16
2018-07-16T13:03:30.475Z,17.08
2018-07-16T13:05:58.954Z,16.96
2018-07-16T13:08:27.409Z,17.06
2018-07-16T13:10:56.502Z,16.84
2018-07-16T13:13:25.434Z,16.75
2018-07-16T13:15:54.042Z,16.97
2018-07-16T13:18:22.865Z,16.85
2018-07-16T13:20:51.386Z,17.25
2018-07-16T13:23:19.825Z,17.79
2018-07-16T13:25:48.646Z,17.57
2018-07-16T13:28:17.257Z,16.93
2018-07-16T13:30:45.690Z,17.41
2018-07-16T13:33:14.377Z,17.86
2018-07-16T13:35:43.301Z,17.75
2018-07-16T13:38:11.772Z,17.83
2018-07-16T13:40:40.470Z,18.20
2018-07-16T13:43:09.669Z,17.46
2018-07-16T13:45:38.283Z,16.96
2018-07-16T13:48:07.109Z,17.60
2018-07-16T13:50:35.803Z,17.00
2018-07-16T13:53:05.194Z,16.37
2018-07-16T13:55:34.068Z,15.57
2018-07-16T13:58:03.301Z,16.16
2018-07-16T14:00:31.765Z,15.69
2018-07-16T14:03:00.666Z,15.14
2018-07-16T14:05:29.374Z,15.43
2018-07-16T14:07:57.985Z,15.74
2018-07-16T14:10:27.135Z,15.69
2018-07-16T14:12:55.784Z,15.17
2018-07-16T14:15:24.521Z,14.90
2018-07-16T14:17:53.622Z,14.92
2018-07-16T14:20:22.370Z,15.04
2018-07-16T14:22:50.793Z,15.49
2018-07-16T14:25:19.274Z,14.83
2018-07-16T14:27:49.778Z,14.88
2018-07-16T14:30:18.911Z,14.88
2018-07-16T14:32:47.382Z,14.77
2018-07-16T14:35:16.675Z,14.84
2018-07-16T14:37:45.793Z,14.85
2018-07-16T14:40:14.230Z,14.89
2018-07-16T14:42:43.025Z,14.61
2018-07-16T14:45:11.861Z,14.33
2018-07-16T14:47:40.556Z,14.30
2018-07-16T14:50:09.396Z,14.74
2018-07-16T14:52:38.138Z,15.01
2018-07-16T14:55:06.974Z,15.27
2018-07-16T14:57:35.745Z,14.82
2018-07-16T15:00:04.875Z,14.91
2018-07-16T15:02:33.345Z,15.02
2018-07-16T15:05:02.417Z,14.78
2018-07-16T15:07:31.267Z,15.18
2018-07-16T15:10:00.185Z,14.74
2018-07-16T15:12:29.086Z,14.86
2018-07-16T15:14:57.563Z,14.82
2018-07-16T15:17:27.273Z,15.18
2018-07-16T15:19:56.307Z,15.22
2018-07-16T15:22:24.801Z,14.83
2018-07-16T15:24:53.558Z,15.11
2018-07-16T15:27:22.429Z,15.39
2018-07-16T15:29:51.047Z,15.39
2018-07-16T15:32:19.531Z,15.26
2018-07-16T15:34:49.702Z,15.37
2018-07-16T15:37:18.709Z,15.32
2018-07-16T15:39:48.088Z,14.96
2018-07-16T15:42:17.309Z,14.89
2018-07-16T15:44:46.099Z,15.27
2018-07-16T15:47:14.754Z,15.61
2018-07-16T15:49:43.666Z,14.84
2018-07-16T15:52:12.477Z,15.16
2018-07-16T15:54:40.925Z,15.52
2018-07-16T15:57:10.055Z,15.54
2018-07-16T15:59:38.796Z,15.70
2018-07-16T16:02:07.581Z,15.88
2018-07-16T16:04:36.395Z,15.75
2018-07-16T16:07:07.245Z,15.40
2018-07-16T16:09:36.989Z,15.95
2018-07-16T16:12:05.874Z,16.01
2018-07-16T16:14:34.593Z,16.10
2018-07-16T16:17:03.298Z,17.18
2018-07-16T16:19:31.891Z,17.64
2018-07-16T16:22:00.785Z,17.64
2018-07-16T16:24:29.636Z,18.38
2018-07-16T16:26:58.161Z,18.58
2018-07-16T16:29:26.656Z,18.52
2018-07-16T16:31:55.905Z,18.70
2018-07-16T16:34:24.561Z,18.43
2018-07-16T16:36:53.052Z,17.66
2018-07-16T16:39:21.793Z,17.15
2018-07-16T16:41:50.717Z,16.96
2018-07-16T16:44:19.209Z,16.70
2018-07-16T16:46:48.475Z,16.74
2018-07-16T16:49:17.595Z,16.99
2018-07-16T16:51:46.097Z,16.92
2018-07-16T16:54:14.572Z,17.15
2018-07-16T16:56:43.665Z,16.95
2018-07-16T16:59:12.670Z,16.71
2018-07-16T17:01:42.082Z,17.14
2018-07-16T17:04:10.940Z,16.77
2018-07-16T17:06:39.375Z,17.47
2018-07-16T17:09:08.915Z,17.35
2018-07-16T17:11:37.609Z,17.54
2018-07-16T17:14:06.098Z,18.08
2018-07-16T17:16:34.885Z,18.45
2018-07-16T17:19:03.669Z,19.30
2018-07-16T17:21:32.141Z,19.72
2018-07-16T17:24:01.314Z,20.25
2018-07-16T17:26:30.342Z,20.73
2018-07-16T17:28:58.790Z,21.07
2018-07-16T17:31:27.597Z,21.75
2018-07-16T17:33:56.487Z,22.24
2018-07-16T17:36:25.537Z,22.33
2018-07-16T17:38:54.030Z,22.69
2018-07-16T17:41:23.054Z,22.73
2018-07-16T17:43:51.613Z,23.58
2018-07-16T17:46:20.132Z,24.00
2018-07-16T17:48:48.813Z,23.90
2018-07-16T17:51:18.238Z,24.27
2018-07-16T17:53:47.301Z,24.53
2018-07-16T17:56:16.635Z,25.17
2018-07-16T17:58:45.081Z,25.72
2018-07-16T18:01:14.097Z,26.03
2018-07-16T18:03:42.826Z,26.20
2018-07-16T18:06:11.246Z,25.76
2018-07-16T18:08:40.018Z,26.26
2018-07-16T18:11:08.913Z,26.79
2018-07-16T18:13:37.622Z,26.26
2018-07-16T18:16:06.836Z,26.83
2018-07-16T18:18:35.513Z,26.76
2018-07-16T18:21:04.051Z,27.13
2018-07-16T18:23:32.689Z,27.79
2018-07-16T18:26:01.648Z,27.62
2018-07-16T18:28:30.071Z,28.09
2018-07-16T18:30:58.794Z,28.33
2018-07-16T18:33:27.609Z,28.78
2018-07-16T18:35:58.926Z,29.14
2018-07-16T18:38:27.901Z,29.22
2018-07-16T18:40:56.744Z,29.44
2018-07-16T18:43:25.619Z,29.76
2018-07-16T18:45:54.083Z,30.03
2018-07-16T18:48:22.793Z,30.06
2018-07-16T18:50:51.933Z,30.60
2018-07-16T18:53:20.737Z,30.99
2018-07-16T18:55:49.467Z,30.49
2018-07-16T18:58:19.309Z,31.37
2018-07-16T19:00:48.937Z,31.59
2018-07-16T19:03:17.769Z,31.36
2018-07-16T19:05:47.025Z,31.56
2018-07-16T19:08:16.165Z,31.61
2018-07-16T19:10:44.957Z,31.56
2018-07-16T19:13:13.485Z,32.62
2018-07-16T19:15:41.955Z,32.47
2018-07-16T19:18:10.797Z,31.92
2018-07-16T19:20:39.648Z,32.15
2018-07-16T19:23:08.609Z,33.01
2018-07-16T19:25:37.378Z,33.40
2018-07-16T19:28:06.326Z,33.21
2018-07-16T19:30:35.374Z,32.98
2018-07-16T19:33:04.302Z,33.53
2018-07-16T19:35:32.800Z,33.39
2018-07-16T19:38:01.323Z,34.11
2018-07-16T19:40:30.781Z,34.53
2018-07-16T19:42:59.580Z,34.22
2018-07-16T19:45:28.129Z,35.02
2018-07-16T19:47:56.909Z,34.82
2018-07-16T19:50:25.370Z,35.09
2018-07-16T19:52:53.821Z,35.51
2018-07-16T19:55:22.868Z,35.97
2018-07-16T19:57:51.418Z,35.66
2018-07-16T20:00:19.876Z,36.23
2018-07-16T20:02:48.682Z,36.33
2018-07-16T20:05:17.388Z,36.47
2018-07-16T20:07:46.025Z,36.65
2018-07-16T20:10:14.813Z,36.22
2018-07-16T20:12:43.322Z,36.91
2018-07-16T20:15:17.129Z,37.16
2018-07-16T20:17:46.073Z,36.76
2018-07-16T20:20:14.620Z,37.17
2018-07-16T20:22:43.423Z,37.88
2018-07-16T20:25:11.881Z,37.85
2018-07-16T20:27:40.494Z,38.18
2018-07-16T20:30:10.054Z,37.93
2018-07-16T20:32:38.801Z,37.82
2018-07-16T20:35:07.486Z,37.95
2018-07-16T20:37:36.348Z,38.16
2018-07-16T20:40:05.126Z,38.46
2018-07-16T20:42:33.597Z,38.28
2018-07-16T20:45:02.732Z,38.47
2018-07-16T20:47:31.178Z,38.22
2018-07-16T20:49:59.654Z,38.34
2018-07-16T20:52:28.760Z,38.82
2018-07-16T20:54:57.561Z,38.63
2018-07-16T20:57:26.001Z,38.91
2018-07-16T20:59:54.877Z,39.40
2018-07-16T21:02:23.946Z,39.08
2018-07-16T21:04:52.401Z,39.72
2018-07-16T21:07:21.505Z,40.29
2018-07-16T21:09:50.274Z,40.15
2018-07-16T21:12:18.725Z,40.80
2018-07-16T21:14:47.407Z,41.14
2018-07-16T21:17:16.133Z,41.10
2018-07-16T21:19:44.721Z,41.23
2018-07-16T21:22:13.913Z,41.50
2018-07-16T21:24:42.505Z,41.82
2018-07-16T21:27:11.130Z,42.09
2018-07-16T21:29:39.977Z,41.80
2018-07-16T21:32:08.941Z,41.92
2018-07-16T21:34:37.529Z,42.57
2018-07-16T21:37:06.011Z,42.09
2018-07-16T21:39:34.489Z,42.41
2018-07-16T21:42:03.206Z,42.55
2018-07-16T21:44:32.233Z,43.21
2018-07-16T21:47:00.681Z,42.88
2018-07-16T21:49:29.160Z,43.67
2018-07-16T21:51:57.929Z,43.78
2018-07-16T21:54:26.353Z,43.42
2018-07-16T21:56:54.801Z,43.90
2018-07-16T21:59:23.923Z,43.60
2018-07-16T22:01:53.082Z,44.08
2018-07-16T22:04:21.927Z,44.18
2018-07-16T22:06:50.374Z,44.51
2018-07-16T22:09:19.094Z,45.19
2018-07-16T22:11:48.298Z,45.50
2018-07-16T22:14:17.170Z,45.58
2018-07-16T22:16:46.022Z,45.34
2018-07-16T22:19:14.761Z,45.99
2018-07-16T22:21:43.678Z,46.22
2018-07-16T22:24:12.389Z,46.44
2018-07-16T22:26:40.817Z,45.96
2018-07-16T22:29:09.726Z,46.16
2018-07-16T22:31:38.501Z,46.42
2018-07-16T22:34:07.457Z,46.52
2018-07-16T22:36:36.306Z,46.61
2018-07-16T22:39:06.853Z,47.16
2018-07-16T22:41:35.982Z,46.70
2018-07-16T22:44:04.505Z,47.23
2018-07-16T22:46:33.225Z,46.73
2018-07-16T22:49:01.997Z,47.15
2018-07-16T22:51:31.171Z,47.18
2018-07-16T22:53:59.701Z,47.11
2018-07-16T22:56:28.210Z,46.59
2018-07-16T22:58:57.220Z,46.93
2018-07-16T23:01:25.725Z,46.39
2018-07-16T23:03:54.209Z,46.36
2018-07-16T23:06:23.091Z,46.85
2018-07-16T23:08:51.798Z,46.89
2018-07-16T23:11:20.293Z,46.26
2018-07-16T23:13:48.765Z,46.18
2018-07-16T23:16:17.841Z,46.42
2018-07-16T23:18:47.402Z,45.92
2018-07-16T23:21:16.441Z,46.33
2018-07-16T23:23:44.902Z,46.37
2018-07-16T23:26:13.865Z,45.83
2018-07-16T23:28:42.357Z,45.78
2018-07-16T23:31:10.874Z,46.21
2018-07-16T23:33:39.585Z,45.95
2018-07-16T23:36:08.987Z,45.91
2018-07-16T23:38:37.561Z,46.36
2018-07-16T23:41:06.574Z,46.90
2018-07-16T23:43:35.235Z,46.54
2018-07-16T23:46:04.085Z,46.84
2018-07-16T23:48:32.642Z,46.56
2018-07-16T23:51:01.261Z,47.16
2018-07-16T23:53:29.767Z,47.31
2018-07-16T23:55:58.280Z,47.46
2018-07-16T23:58:27.449Z,47.48
